Schillplate — ZDJJ8 — position and weather

sailwx.info

Track history (hours):
 
Tides and Currents Weather Stations Pressure Air Temp Water Temp Dewpoint Dewpoint Depression Visibility Wind Speed Wind Dir Waves Ship Positions

Schillplate

Last reported at 2017-Dec-09 13:30 UTC. Time now 2017-Dec-14 08:11 UTC.
Position N 37°23' E 023°57'.

; draft 5.5 m.

Type: Cargo ship. MMSI: 236111603.

Date/timePositionNaut miles runAvg speedWind from/ knotsBaromVisibWave heightAir tempDewpointWater temp
2017-Dec-09 13:30N 37°23' E 023°57'510.0
2017-Dec-09 13:00N 37°27' E 023°60'5 9.9
2017-Dec-09 12:31N 37°31' E 024°03'5 9.9
2017-Dec-09 12:00N 37°36' E 024°06'510.1
2017-Dec-09 11:30N 37°40' E 024°09'510.5
2017-Dec-09 11:00N 37°44' E 024°13'1310.4
2017-Dec-09 09:43N 37°52' E 024°27'210.3
2017-Dec-09 09:30N 37°53' E 024°29'  
2017-Dec-03 18:51N 43°39' E 029°39'410.7
2017-Dec-03 18:30N 43°42' E 029°40'610.8
2017-Dec-03 17:55N 43°49' E 029°42'2210.6
2017-Dec-03 15:47N 44°11' E 029°46'310.3
2017-Dec-03 15:30N 44°14' E 029°47'510.4
2017-Dec-03 15:00N 44°19' E 029°48'510.5
2017-Dec-03 14:29N 44°24' E 029°50'610.5
2017-Dec-03 13:57N 44°30' E 029°51'510.7
2017-Dec-03 13:27N 44°35' E 029°52'  
Track history (hours):
 
Tides and Currents Weather Stations Pressure Air Temp Water Temp Dewpoint Dewpoint Depression Visibility Wind Speed Wind Dir Waves Ship Positions

Schillplate

Last reported at 2017-Dec-09 13:30 UTC. Time now 2017-Dec-14 08:11 UTC.
Position N 37°23' E 023°57'.

; draft 5.5 m.

Type: Cargo ship. MMSI: 236111603.

Date/timePositionNaut miles runAvg speedWind from/ knotsBaromVisibWave heightAir tempDewpointWater temp
2017-Dec-09 13:30N 37°23' E 023°57'510.0
2017-Dec-09 13:00N 37°27' E 023°60'5 9.9
2017-Dec-09 12:31N 37°31' E 024°03'5 9.9
2017-Dec-09 12:00N 37°36' E 024°06'510.1
2017-Dec-09 11:30N 37°40' E 024°09'510.5
2017-Dec-09 11:00N 37°44' E 024°13'1310.4
2017-Dec-09 09:43N 37°52' E 024°27'210.3
2017-Dec-09 09:30N 37°53' E 024°29'  
2017-Dec-03 18:51N 43°39' E 029°39'410.7
2017-Dec-03 18:30N 43°42' E 029°40'610.8
2017-Dec-03 17:55N 43°49' E 029°42'2210.6
2017-Dec-03 15:47N 44°11' E 029°46'310.3
2017-Dec-03 15:30N 44°14' E 029°47'510.4
2017-Dec-03 15:00N 44°19' E 029°48'510.5
2017-Dec-03 14:29N 44°24' E 029°50'610.5
2017-Dec-03 13:57N 44°30' E 029°51'510.7
2017-Dec-03 13:27N 44°35' E 029°52'  

Dump ship's entire track history